British Ensign — MMER9 — position and weather

sailwx.info

Track history (hours):
 
Tides and Currents Weather Stations Pressure Air Temp Water Temp Dewpoint Dewpoint Depression Visibility Wind Speed Wind Dir Waves Ship Positions

British Ensign

Last reported at 2016-Jun-27 17:00 UTC. Time now 2016-Jun-27 22:22 UTC.
Position N 56°06' E 004°36'.

Length 184.2 m; beam 27.4 m; draft 11.3 m.

Type: Ship. MMSI: 235010980.

Wind from 050 at 16 knots

Barometer 1013.4 mb
Air temperature 14.0 ° C
Visibility: greater than 10.8 NM
Dewpoint 10.4 ° C

Date/timePositionNaut miles runAvg speedWind from/ knotsBaromVisibWave heightAir tempDewpointWater temp
2016-Jun-27 17:00N 56°06' E 004°36'4113.7 050 / 161013.410.8 14.010.4
2016-Jun-27 14:00N 55°48' E 003°30'11912.6 290 / 191013.410.8 2.016.211.413.0
2016-Jun-27 04:33N 54°33' E 000°49'1413.8
2016-Jun-27 03:34N 54°20' E 000°40'1018.1
2016-Jun-27 03:00N 54°12' E 000°30'511.0 220 / 121011.4 2.2 13.213.2
2016-Jun-27 02:34N 54°07' E 000°31'1514.7
2016-Jun-27 01:33N 53°54' E 000°21'1514.9
2016-Jun-27 00:34N 53°39' E 000°22'10 9.9
2016-Jun-26 23:34N 53°33' E 000°09'1313.0
2016-Jun-26 22:33N 53°38' W 000°11'1 1.1
2016-Jun-26 21:31N 53°39' W 000°12'0 0.0
2016-Jun-24 22:16N 53°39' W 000°12'0 0.0
2016-Jun-24 21:34N 53°39' W 000°12'2 2.3
2016-Jun-24 20:34N 53°38' W 000°09'9 9.5
2016-Jun-24 19:34N 53°34' E 000°06'8 8.4
2016-Jun-24 18:34N 53°37' E 000°20'7 7.0
2016-Jun-24 17:33N 53°43' E 000°21'0 0.0
2016-Jun-24 16:33N 53°43' E 000°21'0 0.2
2016-Jun-24 15:33N 53°44' E 000°21'0 0.1
2016-Jun-24 14:21N 53°44' E 000°21'0 0.0
2016-Jun-24 13:30N 53°44' E 000°21'0 0.0
2016-Jun-24 12:30N 53°44' E 000°21'0 0.0
2016-Jun-24 11:27N 53°44' E 000°21'0 0.0
2016-Jun-24 10:30N 53°44' E 000°21'0 0.0
2016-Jun-24 09:30N 53°44' E 000°21'0 0.2
2016-Jun-24 08:27N 53°43' E 000°21'0 0.1
2016-Jun-24 07:33N 53°43' E 000°21'0 0.0
2016-Jun-24 04:33N 53°43' E 000°21'0 0.1
2016-Jun-24 03:33N 53°44' E 000°21'0 0.2
2016-Jun-24 02:30N 53°44' E 000°21'0 0.0
2016-Jun-24 01:18N 53°44' E 000°21'0 0.0
2016-Jun-24 00:33N 53°44' E 000°21'0 0.0
2016-Jun-23 23:29N 53°44' E 000°21'0 0.0
2016-Jun-23 22:12N 53°44' E 000°21'0 0.2
2016-Jun-23 21:33N 53°44' E 000°21'2 1.9
2016-Jun-23 20:33N 53°43' E 000°24'5612.8
2016-Jun-23 16:09N 53°56' E 001°56'914.8
2016-Jun-23 15:33N 53°57' E 002°11'1514.9
2016-Jun-23 14:33N 54°01' E 002°35'1514.7
2016-Jun-23 13:33N 54°07' E 002°59'1610.2
2016-Jun-23 12:00N 54°18' E 003°18'3535.5 240 / 91017.8 1.1 0.516.014.3
2016-Jun-23 11:00N 54°24' E 004°18'19 7.9 240 / 91017.8 1.1 0.516.014.3
2016-Jun-23 08:32N 54°34' E 004°46'7513.5
2016-Jun-23 03:00N 55°36' E 006°00'1212.5 110 / 81020.7 2.2 15.414.5
2016-Jun-23 02:00N 55°48' E 006°06'18113.3 140 / 141020.4 5.4 1.515.014.7
2016-Jun-22 12:23N 57°48' E 010°13'1112.9
2016-Jun-22 11:33N 57°49' E 010°33'1211.8
2016-Jun-22 10:33N 57°44' E 010°53'1312.9
2016-Jun-22 09:33N 57°35' E 011°11'1413.6
2016-Jun-22 08:33N 57°25' E 011°28'1413.8
2016-Jun-22 07:34N 57°12' E 011°36'1413.7
2016-Jun-22 06:33N 56°59' E 011°45'1313.5
2016-Jun-22 05:33N 56°47' E 011°53'1313.5
2016-Jun-22 04:33N 56°35' E 011°42'1414.2
2016-Jun-22 03:33N 56°22' E 011°29'1414.2
2016-Jun-22 02:33N 56°10' E 011°16'1413.8
2016-Jun-22 01:32N 55°58' E 011°02'1413.5
2016-Jun-22 00:32N 55°47' E 010°49'2412.0
2016-Jun-21 22:34N 55°24' E 011°01'1212.4
2016-Jun-21 21:33N 55°12' E 011°05'1313.0
2016-Jun-21 20:33N 54°60' E 010°59'1312.6
2016-Jun-21 19:33N 54°48' E 010°50'1110.9
2016-Jun-21 18:33N 54°38' E 010°56'1313.1
2016-Jun-21 17:33N 54°34' E 011°17'1413.8
2016-Jun-21 16:33N 54°28' E 011°39'1414.1
2016-Jun-21 15:34N 54°26' E 012°03'1211.6
2016-Jun-21 14:33N 54°35' E 012°16'5813.5
2016-Jun-21 10:15N 55°01' E 013°47'913.1
2016-Jun-21 09:33N 55°05' E 014°01'1313.4
2016-Jun-21 08:33N 55°08' E 014°23'1313.1
2016-Jun-21 07:33N 55°17' E 014°40'18 9.1
2016-Jun-21 05:33N 55°25' E 015°09'1312.9
2016-Jun-21 04:33N 55°34' E 015°26'1713.1
2016-Jun-21 03:18N 55°43' E 015°50'3813.3
2016-Jun-21 00:28N 55°53' E 016°55'1213.5
2016-Jun-20 23:33N 55°56' E 017°16'1313.5
2016-Jun-20 22:33N 55°59' E 017°39'1313.4
2016-Jun-20 21:33N 56°05' E 018°01'1413.6
2016-Jun-20 20:33N 56°13' E 018°21'1413.7
2016-Jun-20 19:30N 56°21' E 018°43'1414.2
2016-Jun-20 18:30N 56°33' E 018°56'19413.9
2016-Jun-20 04:33N 59°20' E 022°02'1913.9
2016-Jun-20 03:12N 59°31' E 022°31'2313.6
2016-Jun-20 01:33N 59°37' E 023°14'1413.6
2016-Jun-20 00:32N 59°41' E 023°40'1413.7
2016-Jun-19 23:33N 59°44' E 024°06'1413.7
2016-Jun-19 22:32N 59°48' E 024°33'5413.6
2016-Jun-19 18:33N 59°60' E 026°19'1313.3
2016-Jun-19 17:33N 60°01' E 026°45'1313.2
2016-Jun-19 16:33N 60°02' E 027°12'1313.4
2016-Jun-19 15:33N 60°09' E 027°34'3611.9
2016-Jun-19 12:33N 60°13' E 028°45'7 0.2
2016-Jun-18 06:30N 60°19' E 028°44'19 9.7
2016-Jun-18 04:33N 60°01' E 028°32'2 1.7
2016-Jun-18 03:28N 60°00' E 028°29'0 0.0
2016-Jun-18 01:07N 60°00' E 028°28'0 0.0
2016-Jun-18 00:28N 60°00' E 028°28'0 0.0
2016-Jun-17 23:28N 60°00' E 028°28'0 0.0
2016-Jun-17 22:28N 60°00' E 028°28'0 0.0
2016-Jun-17 21:28N 60°00' E 028°28'0 0.0
2016-Jun-17 20:31N 60°00' E 028°28'0 0.1
2016-Jun-17 19:31N 60°00' E 028°29'0 0.0
2016-Jun-17 18:31N 60°00' E 028°28'0 0.0
2016-Jun-17 17:28N 60°00' E 028°28'  
Track history (hours):
 
Tides and Currents Weather Stations Pressure Air Temp Water Temp Dewpoint Dewpoint Depression Visibility Wind Speed Wind Dir Waves Ship Positions

British Ensign

Last reported at 2016-Jun-27 17:00 UTC. Time now 2016-Jun-27 22:22 UTC.
Position N 56°06' E 004°36'.

Length 184.2 m; beam 27.4 m; draft 11.3 m.

Type: Ship. MMSI: 235010980.

Wind from 050 at 16 knots

Barometer 1013.4 mb
Air temperature 14.0 ° C
Visibility: greater than 10.8 NM
Dewpoint 10.4 ° C

Date/timePositionNaut miles runAvg speedWind from/ knotsBaromVisibWave heightAir tempDewpointWater temp
2016-Jun-27 17:00N 56°06' E 004°36'4113.7 050 / 161013.410.8 14.010.4
2016-Jun-27 14:00N 55°48' E 003°30'11912.6 290 / 191013.410.8 2.016.211.413.0
2016-Jun-27 04:33N 54°33' E 000°49'1413.8
2016-Jun-27 03:34N 54°20' E 000°40'1018.1
2016-Jun-27 03:00N 54°12' E 000°30'511.0 220 / 121011.4 2.2 13.213.2
2016-Jun-27 02:34N 54°07' E 000°31'1514.7
2016-Jun-27 01:33N 53°54' E 000°21'1514.9
2016-Jun-27 00:34N 53°39' E 000°22'10 9.9
2016-Jun-26 23:34N 53°33' E 000°09'1313.0
2016-Jun-26 22:33N 53°38' W 000°11'1 1.1
2016-Jun-26 21:31N 53°39' W 000°12'0 0.0
2016-Jun-24 22:16N 53°39' W 000°12'0 0.0
2016-Jun-24 21:34N 53°39' W 000°12'2 2.3
2016-Jun-24 20:34N 53°38' W 000°09'9 9.5
2016-Jun-24 19:34N 53°34' E 000°06'8 8.4
2016-Jun-24 18:34N 53°37' E 000°20'7 7.0
2016-Jun-24 17:33N 53°43' E 000°21'0 0.0
2016-Jun-24 16:33N 53°43' E 000°21'0 0.2
2016-Jun-24 15:33N 53°44' E 000°21'0 0.1
2016-Jun-24 14:21N 53°44' E 000°21'0 0.0
2016-Jun-24 13:30N 53°44' E 000°21'0 0.0
2016-Jun-24 12:30N 53°44' E 000°21'0 0.0
2016-Jun-24 11:27N 53°44' E 000°21'0 0.0
2016-Jun-24 10:30N 53°44' E 000°21'0 0.0
2016-Jun-24 09:30N 53°44' E 000°21'0 0.2
2016-Jun-24 08:27N 53°43' E 000°21'0 0.1
2016-Jun-24 07:33N 53°43' E 000°21'0 0.0
2016-Jun-24 04:33N 53°43' E 000°21'0 0.1
2016-Jun-24 03:33N 53°44' E 000°21'0 0.2
2016-Jun-24 02:30N 53°44' E 000°21'0 0.0
2016-Jun-24 01:18N 53°44' E 000°21'0 0.0
2016-Jun-24 00:33N 53°44' E 000°21'0 0.0
2016-Jun-23 23:29N 53°44' E 000°21'0 0.0
2016-Jun-23 22:12N 53°44' E 000°21'0 0.2
2016-Jun-23 21:33N 53°44' E 000°21'2 1.9
2016-Jun-23 20:33N 53°43' E 000°24'5612.8
2016-Jun-23 16:09N 53°56' E 001°56'914.8
2016-Jun-23 15:33N 53°57' E 002°11'1514.9
2016-Jun-23 14:33N 54°01' E 002°35'1514.7
2016-Jun-23 13:33N 54°07' E 002°59'1610.2
2016-Jun-23 12:00N 54°18' E 003°18'3535.5 240 / 91017.8 1.1 0.516.014.3
2016-Jun-23 11:00N 54°24' E 004°18'19 7.9 240 / 91017.8 1.1 0.516.014.3
2016-Jun-23 08:32N 54°34' E 004°46'7513.5
2016-Jun-23 03:00N 55°36' E 006°00'1212.5 110 / 81020.7 2.2 15.414.5
2016-Jun-23 02:00N 55°48' E 006°06'18113.3 140 / 141020.4 5.4 1.515.014.7
2016-Jun-22 12:23N 57°48' E 010°13'1112.9
2016-Jun-22 11:33N 57°49' E 010°33'1211.8
2016-Jun-22 10:33N 57°44' E 010°53'1312.9
2016-Jun-22 09:33N 57°35' E 011°11'1413.6
2016-Jun-22 08:33N 57°25' E 011°28'1413.8
2016-Jun-22 07:34N 57°12' E 011°36'1413.7
2016-Jun-22 06:33N 56°59' E 011°45'1313.5
2016-Jun-22 05:33N 56°47' E 011°53'1313.5
2016-Jun-22 04:33N 56°35' E 011°42'1414.2
2016-Jun-22 03:33N 56°22' E 011°29'1414.2
2016-Jun-22 02:33N 56°10' E 011°16'1413.8
2016-Jun-22 01:32N 55°58' E 011°02'1413.5
2016-Jun-22 00:32N 55°47' E 010°49'2412.0
2016-Jun-21 22:34N 55°24' E 011°01'1212.4
2016-Jun-21 21:33N 55°12' E 011°05'1313.0
2016-Jun-21 20:33N 54°60' E 010°59'1312.6
2016-Jun-21 19:33N 54°48' E 010°50'1110.9
2016-Jun-21 18:33N 54°38' E 010°56'1313.1
2016-Jun-21 17:33N 54°34' E 011°17'1413.8
2016-Jun-21 16:33N 54°28' E 011°39'1414.1
2016-Jun-21 15:34N 54°26' E 012°03'1211.6
2016-Jun-21 14:33N 54°35' E 012°16'5813.5
2016-Jun-21 10:15N 55°01' E 013°47'913.1
2016-Jun-21 09:33N 55°05' E 014°01'1313.4
2016-Jun-21 08:33N 55°08' E 014°23'1313.1
2016-Jun-21 07:33N 55°17' E 014°40'18 9.1
2016-Jun-21 05:33N 55°25' E 015°09'1312.9
2016-Jun-21 04:33N 55°34' E 015°26'1713.1
2016-Jun-21 03:18N 55°43' E 015°50'3813.3
2016-Jun-21 00:28N 55°53' E 016°55'1213.5
2016-Jun-20 23:33N 55°56' E 017°16'1313.5
2016-Jun-20 22:33N 55°59' E 017°39'1313.4
2016-Jun-20 21:33N 56°05' E 018°01'1413.6
2016-Jun-20 20:33N 56°13' E 018°21'1413.7
2016-Jun-20 19:30N 56°21' E 018°43'1414.2
2016-Jun-20 18:30N 56°33' E 018°56'19413.9
2016-Jun-20 04:33N 59°20' E 022°02'1913.9
2016-Jun-20 03:12N 59°31' E 022°31'2313.6
2016-Jun-20 01:33N 59°37' E 023°14'1413.6
2016-Jun-20 00:32N 59°41' E 023°40'1413.7
2016-Jun-19 23:33N 59°44' E 024°06'1413.7
2016-Jun-19 22:32N 59°48' E 024°33'5413.6
2016-Jun-19 18:33N 59°60' E 026°19'1313.3
2016-Jun-19 17:33N 60°01' E 026°45'1313.2
2016-Jun-19 16:33N 60°02' E 027°12'1313.4
2016-Jun-19 15:33N 60°09' E 027°34'3611.9
2016-Jun-19 12:33N 60°13' E 028°45'7 0.2
2016-Jun-18 06:30N 60°19' E 028°44'19 9.7
2016-Jun-18 04:33N 60°01' E 028°32'2 1.7
2016-Jun-18 03:28N 60°00' E 028°29'0 0.0
2016-Jun-18 01:07N 60°00' E 028°28'0 0.0
2016-Jun-18 00:28N 60°00' E 028°28'0 0.0
2016-Jun-17 23:28N 60°00' E 028°28'0 0.0
2016-Jun-17 22:28N 60°00' E 028°28'0 0.0
2016-Jun-17 21:28N 60°00' E 028°28'0 0.0
2016-Jun-17 20:31N 60°00' E 028°28'0 0.1
2016-Jun-17 19:31N 60°00' E 028°29'0 0.0
2016-Jun-17 18:31N 60°00' E 028°28'0 0.0
2016-Jun-17 17:28N 60°00' E 028°28'  

Dump ship's entire track history